Time;durP1;ratioP1;P1;durP2;ratioP2;P2;SDS_P1;SDS_P2;PMS_P1;PMS_P2;Temp;Humidity;BMP_temperature;BMP_pressure;BME280_temperature;BME280_humidity;BME280_pressure;Samples;Min_cycle;Max_cycle;Signal;HPM_P1;HPM_P2
2021/05/30 00:01:47;;;;;;;1.38;1.27;;;23.70;33.70;;;;;;5009478;28;20212;-50
2021/05/30 00:04:13;;;;;;;1.80;1.10;;;23.70;33.70;;;;;;5009141;28;20214;-46
2021/05/30 00:06:39;;;;;;;1.27;1.20;;;23.70;33.70;;;;;;5008830;28;20243;-45
2021/05/30 00:09:05;;;;;;;1.83;1.27;;;23.70;33.80;;;;;;5014673;28;20245;-46
2021/05/30 00:11:31;;;;;;;1.17;1.08;;;23.70;34.40;;;;;;5009423;28;20250;-49
2021/05/30 00:13:59;;;;;;;1.48;1.17;;;23.70;33.70;;;;;;5011909;28;20285;-50
2021/05/30 00:16:25;;;;;;;1.30;1.20;;;23.70;33.80;;;;;;5013863;28;20227;-48
2021/05/30 00:18:51;;;;;;;1.15;1.05;;;23.70;33.70;;;;;;5012105;28;20726;-47
2021/05/30 00:21:17;;;;;;;1.38;1.27;;;23.70;33.70;;;;;;5027851;28;20207;-50
2021/05/30 00:23:43;;;;;;;1.08;1.08;;;23.70;34.00;;;;;;5013199;28;20560;-53
2021/05/30 00:26:09;;;;;;;1.92;1.20;;;23.70;33.90;;;;;;5012391;28;20226;-44
2021/05/30 00:28:35;;;;;;;1.30;1.20;;;23.70;34.00;;;;;;5010948;28;20214;-54
2021/05/30 00:31:01;;;;;;;1.30;1.20;;;23.70;34.10;;;;;;5013042;28;20573;-46
2021/05/30 00:33:27;;;;;;;2.45;1.20;;;23.70;34.00;;;;;;5012647;28;20208;-44
2021/05/30 00:35:53;;;;;;;1.70;1.60;;;23.70;33.90;;;;;;5012654;28;20223;-53
2021/05/30 00:38:19;;;;;;;1.30;1.20;;;23.70;33.90;;;;;;5012204;28;20210;-48
2021/05/30 00:40:45;;;;;;;1.20;1.10;;;23.70;33.90;;;;;;5012769;28;20227;-43
2021/05/30 00:43:11;;;;;;;1.48;1.38;;;23.70;34.00;;;;;;5012079;28;20198;-46
2021/05/30 00:45:37;;;;;;;1.58;1.08;;;23.70;33.90;;;;;;5012908;28;20219;-51
2021/05/30 00:48:03;;;;;;;1.10;1.10;;;23.70;33.90;;;;;;5010272;28;20206;-49
2021/05/30 00:50:29;;;;;;;1.30;1.20;;;23.70;33.80;;;;;;5014408;28;20207;-47
2021/05/30 00:52:55;;;;;;;1.15;1.10;;;23.70;33.80;;;;;;5011207;28;20203;-48
2021/05/30 00:55:21;;;;;;;1.30;1.20;;;23.70;33.90;;;;;;5012914;28;20563;-46
2021/05/30 00:57:47;;;;;;;1.35;1.10;;;23.70;33.90;;;;;;5011994;28;20202;-42
2021/05/30 01:00:13;;;;;;;1.60;1.50;;;23.70;33.80;;;;;;5011722;28;20243;-43
2021/05/30 01:02:39;;;;;;;2.05;1.48;;;23.70;33.80;;;;;;5012538;28;20241;-46
2021/05/30 01:05:05;;;;;;;1.27;1.17;;;23.70;33.90;;;;;;5011997;28;20222;-45
2021/05/30 01:07:35;;;;;;;1.30;1.20;;;23.70;33.80;;;;;;5010882;28;20261;-53
2021/05/30 01:10:01;;;;;;;1.13;1.10;;;23.70;33.80;;;;;;5011013;28;20241;-47
2021/05/30 01:12:27;;;;;;;1.60;1.05;;;23.70;33.90;;;;;;5016478;28;20560;-47
2021/05/30 01:14:53;;;;;;;1.30;1.20;;;23.70;33.90;;;;;;5012770;28;20230;-46
2021/05/30 01:17:19;;;;;;;1.20;1.10;;;23.70;33.90;;;;;;5012371;28;20195;-44
2021/05/30 01:19:45;;;;;;;1.67;1.30;;;23.70;33.80;;;;;;5010893;28;20277;-45
2021/05/30 01:22:11;;;;;;;1.38;1.23;;;23.70;34.00;;;;;;5021765;28;20216;-43
2021/05/30 01:24:37;;;;;;;1.10;1.10;;;23.70;33.90;;;;;;5011163;28;20204;-41
2021/05/30 01:27:03;;;;;;;1.10;1.00;;;23.70;33.90;;;;;;5011750;28;20230;-41
2021/05/30 01:29:29;;;;;;;1.48;1.38;;;23.70;33.90;;;;;;5011070;28;20202;-49
2021/05/30 01:31:55;;;;;;;1.35;1.25;;;23.70;33.90;;;;;;5010152;28;20207;-43
2021/05/30 01:34:21;;;;;;;1.50;1.40;;;23.70;34.00;;;;;;5011450;28;20262;-42
2021/05/30 01:36:47;;;;;;;2.22;1.23;;;23.70;33.90;;;;;;5012549;28;20687;-48
2021/05/30 01:39:13;;;;;;;2.10;1.05;;;23.70;33.90;;;;;;5010176;28;20219;-52
2021/05/30 01:41:39;;;;;;;1.40;1.30;;;23.70;34.00;;;;;;5012194;28;20194;-45
2021/05/30 01:44:05;;;;;;;1.95;1.17;;;23.70;34.00;;;;;;5012145;28;20230;-43
2021/05/30 01:46:31;;;;;;;1.58;1.20;;;23.70;33.90;;;;;;5015777;28;20251;-50
2021/05/30 01:48:58;;;;;;;1.42;1.33;;;23.70;34.00;;;;;;5011637;28;20536;-45
2021/05/30 01:51:24;;;;;;;1.90;1.30;;;23.70;34.00;;;;;;5010424;28;20545;-46
2021/05/30 01:53:53;;;;;;;1.88;1.42;;;23.70;34.00;;;;;;5011780;28;20199;-44
2021/05/30 01:59:03;;;;;;;1.67;1.30;;;23.70;34.00;;;;;;5031436;28;20582;-43
2021/05/30 02:01:29;;;;;;;1.30;1.20;;;23.70;33.90;;;;;;5012148;28;20615;-45
2021/05/30 02:03:55;;;;;;;1.23;1.13;;;23.60;34.00;;;;;;5011320;28;20195;-42
2021/05/30 02:06:21;;;;;;;2.40;1.20;;;23.70;34.00;;;;;;5010521;28;20227;-50
2021/05/30 02:08:47;;;;;;;1.17;1.08;;;23.70;34.00;;;;;;5035235;23;20265;-59
2021/05/30 02:11:13;;;;;;;1.35;1.20;;;23.70;34.00;;;;;;5029728;28;20211;-59
2021/05/30 02:13:39;;;;;;;1.30;1.20;;;23.70;34.00;;;;;;5031134;28;20266;-59
2021/05/30 02:16:05;;;;;;;1.30;1.20;;;23.70;34.00;;;;;;5024444;28;20222;-59
2021/05/30 02:18:31;;;;;;;1.30;1.20;;;23.70;34.10;;;;;;5013747;28;20250;-59
2021/05/30 02:20:57;;;;;;;1.50;1.10;;;23.70;34.10;;;;;;5009973;28;20545;-59
2021/05/30 02:23:23;;;;;;;1.67;1.40;;;23.70;34.00;;;;;;5012429;28;20206;-58
2021/05/30 02:25:49;;;;;;;1.33;1.23;;;23.60;33.90;;;;;;5009760;28;20215;-58
2021/05/30 02:28:15;;;;;;;1.23;1.13;;;23.70;34.00;;;;;;5006982;28;20214;-60
2021/05/30 02:30:41;;;;;;;1.20;1.10;;;23.70;34.00;;;;;;5016036;28;20203;-59
2021/05/30 02:33:07;;;;;;;1.60;1.25;;;23.70;34.10;;;;;;5015566;28;20537;-60
2021/05/30 02:35:33;;;;;;;1.38;1.27;;;23.70;34.00;;;;;;5021978;28;20263;-60
2021/05/30 02:37:59;;;;;;;1.55;1.33;;;23.70;33.90;;;;;;5024110;28;20203;-59
2021/05/30 02:40:25;;;;;;;1.38;1.25;;;23.70;34.10;;;;;;5009633;28;20574;-59
2021/05/30 02:42:51;;;;;;;1.40;1.30;;;23.70;34.00;;;;;;5019325;28;20218;-59
2021/05/30 02:45:17;;;;;;;1.30;1.20;;;23.70;34.10;;;;;;5010182;28;20598;-59
2021/05/30 02:47:45;;;;;;;1.48;1.30;;;23.70;34.00;;;;;;5018216;28;20202;-60
2021/05/30 02:50:11;;;;;;;1.27;1.17;;;23.70;34.00;;;;;;5011032;28;20608;-60
2021/05/30 02:52:37;;;;;;;1.30;1.20;;;23.70;34.00;;;;;;5007695;28;20195;-59
2021/05/30 02:55:03;;;;;;;1.35;1.25;;;23.70;34.00;;;;;;5013689;28;20276;-59
2021/05/30 02:57:29;;;;;;;1.48;1.27;;;23.70;34.00;;;;;;5017421;28;20198;-59
2021/05/30 02:59:55;;;;;;;1.40;1.13;;;23.70;34.00;;;;;;5015234;28;20569;-59
2021/05/30 03:02:21;;;;;;;1.52;1.20;;;23.70;34.00;;;;;;5017204;28;20207;-59
2021/05/30 03:04:47;;;;;;;1.00;1.00;;;23.70;34.00;;;;;;5016214;28;20476;-59
2021/05/30 03:07:13;;;;;;;1.30;1.15;;;23.60;33.90;;;;;;5026030;28;20209;-60
2021/05/30 03:09:39;;;;;;;1.90;1.63;;;23.70;34.00;;;;;;5013539;28;20211;-60
2021/05/30 03:12:05;;;;;;;1.10;1.10;;;23.70;34.10;;;;;;5019743;28;20202;-60
2021/05/30 03:14:31;;;;;;;1.25;1.15;;;23.70;34.10;;;;;;5011396;28;20246;-60
2021/05/30 03:16:57;;;;;;;1.33;1.23;;;23.70;34.10;;;;;;5009957;28;20223;-60
2021/05/30 03:19:23;;;;;;;1.30;1.20;;;23.70;34.00;;;;;;5025781;28;20227;-60
2021/05/30 03:21:49;;;;;;;1.17;1.10;;;23.60;33.90;;;;;;5010524;28;20207;-60
2021/05/30 03:24:15;;;;;;;1.67;1.25;;;23.70;34.00;;;;;;5008254;28;20223;-59
2021/05/30 03:26:40;;;;;;;1.50;1.40;;;23.70;34.10;;;;;;5023306;28;20210;-60
2021/05/30 03:29:06;;;;;;;1.52;1.30;;;23.70;34.10;;;;;;5020918;28;20630;-60
2021/05/30 03:31:32;;;;;;;1.35;1.25;;;23.70;34.10;;;;;;5010011;28;20275;-60
2021/05/30 03:33:58;;;;;;;1.33;1.20;;;23.70;34.10;;;;;;5012000;28;20534;-60
2021/05/30 03:36:26;;;;;;;1.27;1.00;;;23.70;34.10;;;;;;5015790;28;20244;-60
2021/05/30 03:39:00;;;;;;;1.52;1.10;;;23.70;34.10;;;;;;5009241;28;20206;-59
2021/05/30 03:41:31;;;;;;;1.77;1.23;;;23.70;34.00;;;;;;5013269;28;20251;-60
2021/05/30 03:43:57;;;;;;;1.40;1.30;;;23.70;34.00;;;;;;5015797;28;20203;-60
2021/05/30 03:46:22;;;;;;;1.73;1.42;;;23.60;34.00;;;;;;5018673;28;20314;-59
2021/05/30 03:48:48;;;;;;;1.92;1.33;;;23.70;34.10;;;;;;5011343;28;20204;-60
2021/05/30 03:51:14;;;;;;;1.40;1.30;;;23.70;34.10;;;;;;5014087;28;20237;-59
2021/05/30 03:53:40;;;;;;;1.27;1.20;;;23.70;34.10;;;;;;5017102;28;20206;-60
2021/05/30 03:56:06;;;;;;;1.80;1.10;;;23.60;34.00;;;;;;5021635;28;20242;-60
2021/05/30 03:58:32;;;;;;;1.65;1.55;;;23.70;34.10;;;;;;5024987;28;20210;-60
2021/05/30 04:00:58;;;;;;;1.45;1.35;;;23.70;34.00;;;;;;5011531;28;20235;-60
2021/05/30 04:03:24;;;;;;;1.33;1.10;;;23.70;33.90;;;;;;5012020;28;20199;-60
2021/05/30 04:05:50;;;;;;;2.83;1.20;;;23.70;33.90;;;;;;5024511;28;20229;-60
2021/05/30 04:08:16;;;;;;;1.65;1.55;;;23.70;34.00;;;;;;5013068;28;20693;-60
2021/05/30 04:10:44;;;;;;;1.10;1.10;;;23.70;34.10;;;;;;5012659;28;20223;-60
2021/05/30 04:13:10;;;;;;;1.60;1.25;;;23.70;34.20;;;;;;4994278;28;20208;-60
2021/05/30 04:15:36;;;;;;;2.33;1.58;;;23.70;34.00;;;;;;5012248;28;20234;-60
2021/05/30 04:18:02;;;;;;;1.27;1.17;;;23.70;34.00;;;;;;5013352;28;20245;-59
2021/05/30 04:20:28;;;;;;;1.40;1.30;;;23.70;34.10;;;;;;5018927;28;20313;-60
2021/05/30 04:22:54;;;;;;;1.40;1.30;;;23.70;34.00;;;;;;5022652;28;20202;-60
2021/05/30 04:25:20;;;;;;;1.13;1.02;;;23.70;34.10;;;;;;5025536;28;20600;-60
2021/05/30 04:27:46;;;;;;;1.58;1.40;;;23.70;34.10;;;;;;5024419;28;20203;-59
2021/05/30 04:30:12;;;;;;;1.30;1.20;;;23.70;34.00;;;;;;5029221;28;20191;-60
2021/05/30 04:32:38;;;;;;;1.25;1.15;;;23.70;34.00;;;;;;5012527;28;20207;-60
2021/05/30 04:35:04;;;;;;;1.70;1.27;;;23.70;34.10;;;;;;5009926;28;20267;-60
2021/05/30 04:37:30;;;;;;;1.20;1.10;;;23.70;34.00;;;;;;5018573;28;20329;-60
2021/05/30 04:39:56;;;;;;;1.40;1.30;;;23.70;34.10;;;;;;5022698;28;20219;-60
2021/05/30 04:42:22;;;;;;;1.33;1.23;;;23.70;34.10;;;;;;5017918;28;20199;-60
2021/05/30 04:44:48;;;;;;;2.90;1.45;;;23.70;34.00;;;;;;5011802;28;20277;-60
2021/05/30 04:47:14;;;;;;;1.40;1.10;;;23.70;34.10;;;;;;5020810;28;20662;-60
2021/05/30 04:49:40;;;;;;;1.65;1.20;;;23.70;34.00;;;;;;5015128;28;20265;-60
2021/05/30 04:52:06;;;;;;;1.45;1.10;;;23.70;34.00;;;;;;5013185;28;20474;-60
2021/05/30 04:54:32;;;;;;;1.70;1.13;;;23.70;34.10;;;;;;5013375;28;20219;-60
2021/05/30 04:56:58;;;;;;;1.20;1.10;;;23.70;34.10;;;;;;5031278;28;20202;-60
2021/05/30 04:59:24;;;;;;;1.23;1.10;;;23.70;34.10;;;;;;5013573;28;20239;-61
2021/05/30 05:01:50;;;;;;;1.40;1.30;;;23.70;34.10;;;;;;5012296;28;20207;-59
2021/05/30 05:04:16;;;;;;;1.20;1.10;;;23.70;34.10;;;;;;5007081;28;20250;-59
2021/05/30 05:06:42;;;;;;;1.23;1.13;;;23.70;34.10;;;;;;5010728;28;20651;-60
2021/05/30 05:09:08;;;;;;;1.30;1.20;;;23.70;34.00;;;;;;5017695;28;20217;-60
2021/05/30 05:11:34;;;;;;;1.30;1.20;;;23.70;34.20;;;;;;5016339;28;20203;-58
2021/05/30 05:14:00;;;;;;;1.30;1.20;;;23.70;34.00;;;;;;5016934;28;20226;-60
2021/05/30 05:16:26;;;;;;;1.30;1.23;;;23.70;34.10;;;;;;5020405;28;20253;-60
2021/05/30 05:18:52;;;;;;;2.08;1.40;;;23.70;34.10;;;;;;5022498;28;20643;-59
2021/05/30 05:21:18;;;;;;;1.10;1.10;;;23.70;34.00;;;;;;5018750;28;20210;-59
2021/05/30 05:23:44;;;;;;;1.17;1.08;;;23.70;34.10;;;;;;5011294;28;20196;-61
2021/05/30 05:26:10;;;;;;;0.98;0.95;;;23.70;34.00;;;;;;5010014;28;20207;-59
2021/05/30 05:28:37;;;;;;;1.30;1.23;;;23.70;34.00;;;;;;5026678;28;20223;-60
2021/05/30 05:31:03;;;;;;;1.17;1.08;;;23.70;34.10;;;;;;5025904;28;20203;-61
2021/05/30 05:33:29;;;;;;;1.38;1.27;;;23.70;34.10;;;;;;5012695;28;20243;-60
2021/05/30 05:35:55;;;;;;;1.30;1.20;;;23.70;34.10;;;;;;5020626;28;20652;-59
2021/05/30 05:38:21;;;;;;;1.15;1.15;;;23.70;34.00;;;;;;5015513;28;20256;-60
2021/05/30 05:40:47;;;;;;;1.20;1.10;;;23.70;34.10;;;;;;5027318;28;20238;-60
2021/05/30 05:43:13;;;;;;;2.10;1.30;;;23.70;34.00;;;;;;5021632;28;20202;-59
2021/05/30 05:45:39;;;;;;;1.38;1.27;;;23.70;34.10;;;;;;5016567;28;20223;-62
2021/05/30 05:48:05;;;;;;;1.80;1.10;;;23.70;34.00;;;;;;5010732;28;20195;-61
2021/05/30 05:50:31;;;;;;;1.45;1.20;;;23.70;34.30;;;;;;5011979;28;20551;-62
2021/05/30 05:52:57;;;;;;;2.25;1.23;;;23.70;34.20;;;;;;5011127;28;20234;-61
2021/05/30 05:55:23;;;;;;;1.33;0.90;;;23.70;34.20;;;;;;5009946;28;20269;-61
2021/05/30 05:57:49;;;;;;;1.10;1.10;;;23.70;34.20;;;;;;5003735;28;20199;-61
2021/05/30 06:00:16;;;;;;;1.20;1.10;;;23.70;34.20;;;;;;5011128;28;20467;-61
2021/05/30 06:02:42;;;;;;;1.30;1.20;;;23.70;34.20;;;;;;5012109;28;20239;-62
2021/05/30 06:05:08;;;;;;;1.17;1.08;;;23.70;34.20;;;;;;5010546;28;20227;-62
2021/05/30 06:07:36;;;;;;;1.30;1.20;;;23.70;34.20;;;;;;5006643;28;20697;-62
2021/05/30 06:10:02;;;;;;;1.38;1.27;;;23.70;34.10;;;;;;4992920;28;20241;-61
2021/05/30 06:12:28;;;;;;;1.40;1.30;;;23.70;34.10;;;;;;5011657;28;20226;-61
2021/05/30 06:14:54;;;;;;;1.17;1.10;;;23.70;34.00;;;;;;5010433;28;20281;-61
2021/05/30 06:17:20;;;;;;;2.00;1.20;;;23.70;34.10;;;;;;5010256;28;20281;-61
2021/05/30 06:19:46;;;;;;;1.10;1.10;;;23.70;34.00;;;;;;5010842;28;20241;-61
2021/05/30 06:22:12;;;;;;;1.27;1.27;;;23.70;34.00;;;;;;5012854;28;20199;-61
2021/05/30 06:24:38;;;;;;;1.75;1.02;;;23.70;34.00;;;;;;5022372;28;20535;-61
2021/05/30 06:27:04;;;;;;;1.40;1.30;;;23.70;34.10;;;;;;5010732;28;20200;-61
2021/05/30 06:29:30;;;;;;;1.20;1.10;;;23.70;34.00;;;;;;5008756;28;20218;-60
2021/05/30 06:31:56;;;;;;;1.08;1.08;;;23.70;34.00;;;;;;5010362;28;20203;-61
2021/05/30 06:34:22;;;;;;;1.30;1.20;;;23.70;34.00;;;;;;5010305;28;20234;-61
2021/05/30 06:36:50;;;;;;;1.13;1.10;;;23.70;34.00;;;;;;5009910;28;20211;-61
2021/05/30 06:39:16;;;;;;;1.58;1.20;;;23.70;34.00;;;;;;5003848;28;20313;-61
2021/05/30 06:41:41;;;;;;;1.20;1.10;;;23.70;33.90;;;;;;5008488;28;20207;-61
2021/05/30 06:44:07;;;;;;;1.30;1.20;;;23.80;34.00;;;;;;5013906;28;20221;-61
2021/05/30 06:46:33;;;;;;;1.00;1.00;;;23.80;34.00;;;;;;5012700;28;20520;-61
2021/05/30 06:48:59;;;;;;;1.55;1.38;;;23.80;34.00;;;;;;5009805;28;20198;-61
2021/05/30 06:51:29;;;;;;;1.30;1.15;;;23.80;34.00;;;;;;5021715;28;20203;-61
2021/05/30 06:53:55;;;;;;;1.13;1.13;;;23.80;34.00;;;;;;5010855;28;20215;-61
2021/05/30 06:56:21;;;;;;;1.33;1.10;;;23.80;33.90;;;;;;5008144;28;20233;-61
2021/05/30 06:58:47;;;;;;;1.25;1.13;;;23.80;33.90;;;;;;5010304;28;20207;-61
2021/05/30 07:01:14;;;;;;;1.23;1.15;;;23.80;34.50;;;;;;5005563;28;20243;-61
2021/05/30 07:03:40;;;;;;;1.30;1.20;;;23.80;34.70;;;;;;5003686;28;20224;-61
2021/05/30 07:06:06;;;;;;;1.48;1.27;;;23.80;34.70;;;;;;5008210;28;20608;-62
2021/05/30 07:08:32;;;;;;;1.98;1.58;;;23.80;34.90;;;;;;5008637;28;20215;-65
2021/05/30 07:10:58;;;;;;;2.55;1.50;;;23.80;35.20;;;;;;5008241;28;20199;-59
2021/05/30 07:13:24;;;;;;;7.95;1.67;;;23.90;35.50;;;;;;5011115;28;20570;-61
2021/05/30 07:15:52;;;;;;;1.52;1.40;;;24.00;36.30;;;;;;5009099;28;20242;-61
2021/05/30 07:18:18;;;;;;;1.98;1.42;;;24.00;37.10;;;;;;5009253;28;20195;-61
2021/05/30 07:20:45;;;;;;;3.28;1.40;;;24.00;36.90;;;;;;5008531;28;20230;-60
2021/05/30 07:23:10;;;;;;;2.05;1.27;;;24.00;37.00;;;;;;5013322;28;20211;-63
2021/05/30 07:25:36;;;;;;;3.50;1.58;;;24.00;35.90;;;;;;4999926;28;20203;-64
2021/05/30 07:28:02;;;;;;;2.78;1.35;;;23.90;35.90;;;;;;4999740;28;20253;-63
2021/05/30 07:30:28;;;;;;;4.70;2.00;;;23.90;38.20;;;;;;5004191;28;20613;-51
2021/05/30 07:32:54;;;;;;;6.00;1.67;;;24.00;37.70;;;;;;5009783;28;20195;-59
2021/05/30 07:35:20;;;;;;;3.58;2.00;;;24.00;38.70;;;;;;5016297;28;20226;-59
2021/05/30 07:37:46;;;;;;;3.33;1.50;;;23.90;38.30;;;;;;5013226;28;20211;-61
2021/05/30 07:40:12;;;;;;;3.78;1.50;;;23.90;38.00;;;;;;5013412;28;20235;-58
2021/05/30 07:42:38;;;;;;;5.20;1.67;;;23.90;38.00;;;;;;5014099;28;20252;-61
2021/05/30 07:45:04;;;;;;;7.90;1.80;;;23.90;38.00;;;;;;5013506;28;20230;-58
2021/05/30 07:47:30;;;;;;;3.83;1.50;;;23.90;38.80;;;;;;5013889;28;20207;-59
2021/05/30 07:49:56;;;;;;;6.25;3.58;;;23.80;38.40;;;;;;5014267;28;20214;-59
2021/05/30 07:52:22;;;;;;;5.20;3.70;;;23.70;35.40;;;;;;5011616;28;20199;-60
2021/05/30 07:54:48;;;;;;;6.22;3.30;;;21.80;30.50;;;;;;5010524;28;20224;-62
2021/05/30 07:57:14;;;;;;;6.07;3.22;;;21.90;36.80;;;;;;5013356;28;20550;-62
2021/05/30 07:59:40;;;;;;;6.93;3.10;;;22.50;36.80;;;;;;5013001;28;20226;-61
2021/05/30 08:02:06;;;;;;;4.78;2.70;;;22.90;38.00;;;;;;5013620;28;20203;-63
2021/05/30 08:04:32;;;;;;;5.68;2.92;;;23.10;38.00;;;;;;5012734;28;20223;-61
2021/05/30 08:06:58;;;;;;;4.55;2.63;;;23.30;37.50;;;;;;5014116;28;20295;-62
2021/05/30 08:09:24;;;;;;;3.70;2.72;;;23.50;37.30;;;;;;5012012;28;20576;-61
2021/05/30 08:11:50;;;;;;;4.57;2.95;;;23.60;37.50;;;;;;5012038;28;20202;-62
2021/05/30 08:14:16;;;;;;;3.75;2.42;;;23.70;37.60;;;;;;5012582;28;20723;-62
2021/05/30 08:16:42;;;;;;;4.35;2.30;;;23.70;37.30;;;;;;5012811;28;20257;-61
2021/05/30 08:19:08;;;;;;;4.85;2.40;;;23.80;37.30;;;;;;5012968;28;20203;-61
2021/05/30 08:21:34;;;;;;;3.95;2.30;;;23.80;37.10;;;;;;5013329;28;20238;-61
2021/05/30 08:24:00;;;;;;;3.00;2.17;;;23.90;37.80;;;;;;5012683;28;20234;-61
2021/05/30 08:26:26;;;;;;;5.03;2.40;;;23.90;38.00;;;;;;5012614;28;20211;-61
2021/05/30 08:28:52;;;;;;;3.45;2.50;;;23.90;37.60;;;;;;5012853;28;20572;-61
2021/05/30 08:31:18;;;;;;;4.43;2.45;;;24.00;38.10;;;;;;5012354;28;20222;-61
2021/05/30 08:33:44;;;;;;;2.30;2.10;;;24.00;38.10;;;;;;5011614;28;20552;-61
2021/05/30 08:36:10;;;;;;;3.72;2.22;;;24.00;38.10;;;;;;4996019;28;20195;-49
2021/05/30 08:38:36;;;;;;;2.40;2.20;;;23.90;39.00;;;;;;5011656;28;20215;-51
2021/05/30 08:41:02;;;;;;;3.78;2.00;;;24.00;38.20;;;;;;5012339;28;20230;-55
2021/05/30 08:43:28;;;;;;;3.95;2.30;;;24.00;38.10;;;;;;5012322;28;20707;-56
2021/05/30 08:45:54;;;;;;;4.43;2.33;;;23.90;38.10;;;;;;5010599;28;20218;-56
2021/05/30 08:48:20;;;;;;;7.15;2.08;;;23.90;37.60;;;;;;5010113;28;20211;-58
2021/05/30 08:51:01;;;;;;;5.13;1.73;;;23.90;37.50;;;;;;5010839;28;20651;-54
2021/05/30 08:53:27;;;;;;;2.47;1.92;;;23.90;38.00;;;;;;5003591;28;20249;-59
2021/05/30 08:55:53;;;;;;;3.10;2.15;;;24.00;37.30;;;;;;5011730;28;20200;-58
2021/05/30 08:58:19;;;;;;;6.25;2.10;;;24.00;38.10;;;;;;5010263;28;20678;-53
2021/05/30 09:00:45;;;;;;;2.60;2.10;;;24.00;38.10;;;;;;5005077;28;20234;-54
2021/05/30 09:03:11;;;;;;;2.50;1.95;;;24.00;38.60;;;;;;5007818;28;20207;-58
2021/05/30 09:05:37;;;;;;;2.03;1.80;;;24.00;38.60;;;;;;5011613;28;20266;-55
2021/05/30 09:08:03;;;;;;;2.85;2.00;;;24.00;38.10;;;;;;5010249;28;20207;-57
2021/05/30 09:10:29;;;;;;;2.80;1.73;;;24.00;38.10;;;;;;5012688;28;20199;-55
2021/05/30 09:12:55;;;;;;;5.70;2.30;;;24.00;38.30;;;;;;5010194;28;20208;-55
2021/05/30 09:15:22;;;;;;;2.65;1.52;;;24.00;38.40;;;;;;5010449;28;20211;-59
2021/05/30 09:17:48;;;;;;;2.58;1.73;;;24.00;38.10;;;;;;5009986;28;20310;-61
2021/05/30 09:20:14;;;;;;;2.58;2.00;;;24.00;38.10;;;;;;5010295;28;20234;-59
2021/05/30 09:22:40;;;;;;;2.85;1.98;;;24.00;38.00;;;;;;5008735;28;20214;-61
2021/05/30 09:25:06;;;;;;;2.85;1.77;;;24.00;40.20;;;;;;5011664;28;20230;-60
2021/05/30 09:27:32;;;;;;;2.90;2.10;;;24.00;39.00;;;;;;5011150;28;20211;-59
2021/05/30 09:29:58;;;;;;;4.53;2.10;;;24.00;37.30;;;;;;5009934;28;20743;-61
2021/05/30 09:32:24;;;;;;;3.30;2.05;;;24.00;35.80;;;;;;5008967;28;20203;-58
2021/05/30 09:34:50;;;;;;;2.65;1.88;;;24.00;34.50;;;;;;5012212;28;20226;-58
2021/05/30 09:37:16;;;;;;;3.55;2.28;;;23.90;33.10;;;;;;5009860;28;20597;-57
2021/05/30 09:39:41;;;;;;;5.70;2.17;;;23.90;30.90;;;;;;5009039;28;20223;-58
2021/05/30 09:42:07;;;;;;;2.97;1.90;;;23.90;30.40;;;;;;5009208;28;20198;-55
2021/05/30 09:44:34;;;;;;;2.63;2.28;;;23.90;31.40;;;;;;5009082;28;20614;-56
2021/05/30 09:47:00;;;;;;;3.25;2.60;;;23.90;30.20;;;;;;5008346;28;22097;-59
2021/05/30 09:49:26;;;;;;;2.10;1.90;;;23.90;28.60;;;;;;5005595;28;20203;-52
2021/05/30 09:51:51;;;;;;;3.33;1.98;;;23.90;28.60;;;;;;5009344;28;20206;-51
2021/05/30 09:54:18;;;;;;;2.65;1.98;;;23.90;29.10;;;;;;5010723;28;20230;-57
2021/05/30 09:56:44;;;;;;;2.75;2.00;;;23.90;28.70;;;;;;5010181;28;20590;-57
2021/05/30 09:59:10;;;;;;;5.28;2.40;;;23.90;29.10;;;;;;5006488;28;20203;-57
2021/05/30 10:01:36;;;;;;;3.22;2.08;;;23.90;29.00;;;;;;5008413;28;20203;-57
2021/05/30 10:04:02;;;;;;;2.20;1.85;;;23.90;29.50;;;;;;5008431;28;20275;-58
2021/05/30 10:06:28;;;;;;;2.33;2.13;;;23.90;29.40;;;;;;5007506;28;20613;-54
2021/05/30 10:08:54;;;;;;;2.17;1.90;;;24.00;28.90;;;;;;5011465;28;20215;-54
2021/05/30 10:11:20;;;;;;;4.82;2.05;;;24.00;29.40;;;;;;5009265;28;20211;-57
2021/05/30 10:13:46;;;;;;;2.55;1.77;;;24.00;29.80;;;;;;5011188;28;20782;-60
2021/05/30 10:16:12;;;;;;;2.30;2.10;;;23.90;28.50;;;;;;5008230;28;20238;-53
2021/05/30 10:18:38;;;;;;;2.40;2.20;;;23.90;27.80;;;;;;5010068;28;20270;-54
2021/05/30 10:21:04;;;;;;;3.25;2.28;;;23.80;26.90;;;;;;5010230;28;20238;-56
2021/05/30 10:23:31;;;;;;;4.07;2.40;;;23.80;26.10;;;;;;5008851;28;20230;-56
2021/05/30 10:25:57;;;;;;;2.97;2.28;;;23.80;26.00;;;;;;5010248;28;20589;-50
2021/05/30 10:28:23;;;;;;;2.42;2.20;;;23.70;25.00;;;;;;5009592;28;20203;-57
2021/05/30 10:30:49;;;;;;;2.67;2.25;;;23.80;25.60;;;;;;5009677;28;20713;-53
2021/05/30 10:33:15;;;;;;;2.80;2.50;;;23.70;25.60;;;;;;5009867;28;20227;-52
2021/05/30 10:35:41;;;;;;;2.88;2.03;;;23.70;25.10;;;;;;5010293;28;20207;-47
2021/05/30 10:38:07;;;;;;;2.55;2.35;;;23.70;25.30;;;;;;5009956;28;20202;-54
2021/05/30 10:40:34;;;;;;;2.95;2.50;;;23.80;24.70;;;;;;5017697;28;20223;-52
2021/05/30 10:43:00;;;;;;;5.78;2.80;;;23.70;24.90;;;;;;5009280;28;20245;-44
2021/05/30 10:45:26;;;;;;;3.55;2.13;;;23.70;26.40;;;;;;5009839;28;20915;-44
2021/05/30 10:47:54;;;;;;;7.43;3.08;;;23.80;25.20;;;;;;5008111;28;20207;-60
2021/05/30 10:50:20;;;;;;;5.00;2.28;;;23.80;25.80;;;;;;5008818;28;20207;-59
2021/05/30 10:52:46;;;;;;;4.05;2.50;;;23.70;26.70;;;;;;5010654;28;20362;-58
2021/05/30 10:55:12;;;;;;;2.88;2.50;;;23.80;26.20;;;;;;5009692;28;20199;-59
2021/05/30 10:57:38;;;;;;;3.83;2.20;;;23.80;26.30;;;;;;5008796;28;20191;-60
2021/05/30 11:00:04;;;;;;;2.80;2.50;;;23.80;26.70;;;;;;5007708;28;20239;-62
2021/05/30 11:02:30;;;;;;;4.07;2.50;;;23.80;27.00;;;;;;5013096;28;20219;-59
2021/05/30 11:04:56;;;;;;;4.50;2.60;;;23.80;28.50;;;;;;5021314;28;20198;-59
2021/05/30 11:07:22;;;;;;;4.10;2.42;;;23.80;28.60;;;;;;5015456;28;20285;-61
2021/05/30 11:09:48;;;;;;;3.35;2.20;;;23.90;28.60;;;;;;5018763;28;20211;-61
2021/05/30 11:12:14;;;;;;;3.45;2.47;;;23.90;28.60;;;;;;5009843;28;20217;-61
2021/05/30 11:14:40;;;;;;;3.70;2.38;;;23.80;28.60;;;;;;5010639;28;20223;-61
2021/05/30 11:17:06;;;;;;;4.75;2.45;;;23.80;28.60;;;;;;5012016;28;20195;-59
2021/05/30 11:19:32;;;;;;;3.45;2.40;;;23.80;28.60;;;;;;5024500;28;20567;-61
2021/05/30 11:21:58;;;;;;;2.83;2.63;;;23.80;28.80;;;;;;5009630;28;20214;-61
2021/05/30 11:24:24;;;;;;;2.75;1.98;;;23.80;29.00;;;;;;5030571;28;20218;-62
2021/05/30 11:26:50;;;;;;;3.20;2.40;;;23.80;29.20;;;;;;5014604;28;20723;-62
2021/05/30 11:29:16;;;;;;;3.40;2.30;;;23.80;29.30;;;;;;5016842;28;20205;-59
2021/05/30 11:31:42;;;;;;;2.50;2.30;;;23.90;29.60;;;;;;5014912;28;20596;-61
2021/05/30 11:34:08;;;;;;;2.65;2.25;;;23.90;29.90;;;;;;5008895;28;20223;-61
2021/05/30 11:36:34;;;;;;;3.58;2.22;;;23.90;30.00;;;;;;5006231;28;20199;-60
2021/05/30 11:39:00;;;;;;;2.45;2.25;;;23.80;29.30;;;;;;5007793;28;20207;-62
2021/05/30 11:41:26;;;;;;;2.97;2.67;;;23.80;28.60;;;;;;5007532;28;20606;-60
2021/05/30 11:43:52;;;;;;;3.03;2.72;;;23.70;27.80;;;;;;5010150;28;20238;-60
2021/05/30 11:46:18;;;;;;;4.18;2.40;;;23.60;27.00;;;;;;5011216;28;20207;-60
2021/05/30 11:48:44;;;;;;;3.83;2.38;;;23.60;26.00;;;;;;5005858;28;20569;-61
2021/05/30 11:51:10;;;;;;;4.90;2.55;;;23.60;25.40;;;;;;5002318;28;20196;-61
2021/05/30 11:53:36;;;;;;;4.95;3.13;;;23.60;25.10;;;;;;5017694;28;20691;-62
2021/05/30 11:56:02;;;;;;;2.78;2.58;;;23.60;25.10;;;;;;5010394;28;20231;-61
2021/05/30 11:58:28;;;;;;;2.75;2.55;;;23.50;24.80;;;;;;5012256;28;20261;-62
2021/05/30 12:00:54;;;;;;;2.63;2.42;;;23.50;24.50;;;;;;5008674;28;20730;-61
2021/05/30 12:03:20;;;;;;;2.50;2.30;;;23.50;24.80;;;;;;5009744;28;20230;-61
2021/05/30 12:05:46;;;;;;;3.35;2.08;;;23.50;24.60;;;;;;5010564;28;20207;-60
2021/05/30 12:08:12;;;;;;;3.45;2.60;;;23.50;24.50;;;;;;5008088;28;20587;-61
2021/05/30 12:10:38;;;;;;;4.82;3.33;;;23.50;24.50;;;;;;5023890;28;20200;-61
2021/05/30 12:13:04;;;;;;;8.07;4.85;;;23.60;25.00;;;;;;5013743;28;20234;-61
2021/05/30 12:15:30;;;;;;;12.70;5.32;;;23.60;24.50;;;;;;5012456;28;20222;-60
2021/05/30 12:17:56;;;;;;;8.45;5.38;;;23.50;24.00;;;;;;5010597;28;20207;-61
2021/05/30 12:20:22;;;;;;;15.75;7.22;;;23.50;23.60;;;;;;5014015;28;20755;-61
2021/05/30 12:22:48;;;;;;;12.93;8.43;;;23.50;23.70;;;;;;5013406;28;20223;-62
2021/05/30 12:25:14;;;;;;;13.65;7.85;;;23.60;24.20;;;;;;5011579;28;20532;-60
2021/05/30 12:27:39;;;;;;;20.98;9.90;;;23.70;24.60;;;;;;5012900;28;20207;-61
2021/05/30 12:30:05;;;;;;;16.55;9.30;;;23.70;24.90;;;;;;5015323;28;20206;-60
2021/05/30 12:32:31;;;;;;;15.73;9.20;;;23.80;25.60;;;;;;5010067;28;20250;-62
2021/05/30 12:34:57;;;;;;;18.15;9.57;;;23.80;26.00;;;;;;5014013;28;20581;-61
2021/05/30 12:37:23;;;;;;;15.85;9.65;;;23.90;26.40;;;;;;5004263;28;20278;-61
2021/05/30 12:39:49;;;;;;;15.38;10.02;;;23.90;26.70;;;;;;5021069;28;20223;-60
2021/05/30 12:42:17;;;;;;;18.75;11.00;;;24.00;27.00;;;;;;5011434;28;20235;-60